createdAt,value
2023-02-25T00:00:31.229Z,6.67
2023-02-25T00:02:58.204Z,4.37
2023-02-25T00:05:25.002Z,3.47
2023-02-25T00:07:51.379Z,5.27
2023-02-25T00:10:17.797Z,4.57
2023-02-25T00:12:44.216Z,2.13
2023-02-25T00:15:11.058Z,4.43
2023-02-25T00:17:40.686Z,3.53
2023-02-25T00:20:09.694Z,4.30
2023-02-25T00:22:36.442Z,5.67
2023-02-25T00:25:02.864Z,8.97
2023-02-25T00:27:29.172Z,4.43
2023-02-25T00:29:55.502Z,5.83
2023-02-25T00:32:22.526Z,5.43
2023-02-25T00:34:49.024Z,4.73
2023-02-25T00:37:15.564Z,7.90
2023-02-25T00:39:42.471Z,6.83
2023-02-25T00:42:09.941Z,5.27
2023-02-25T00:44:36.982Z,3.43
2023-02-25T00:47:03.665Z,4.80
2023-02-25T00:49:32.358Z,3.53
2023-02-25T00:52:00.138Z,5.10
2023-02-25T00:54:26.612Z,4.57
2023-02-25T00:56:54.042Z,3.37
2023-02-25T00:59:20.330Z,4.90
2023-02-25T01:01:46.903Z,3.77
2023-02-25T01:04:13.204Z,6.07
2023-02-25T01:06:39.872Z,3.53
2023-02-25T01:09:07.076Z,5.43
2023-02-25T01:11:34.545Z,6.27
2023-02-25T01:14:01.966Z,8.40
2023-02-25T01:16:29.495Z,15.17
2023-02-25T01:18:56.727Z,7.97
2023-02-25T01:21:26.475Z,3.60
2023-02-25T01:23:59.722Z,7.60
2023-02-25T01:26:26.616Z,12.80
2023-02-25T01:28:52.911Z,13.77
2023-02-25T01:31:20.392Z,5.07
2023-02-25T01:33:46.837Z,7.87
2023-02-25T01:36:13.132Z,13.77
2023-02-25T01:38:39.469Z,5.17
2023-02-25T01:41:05.759Z,5.73
2023-02-25T01:43:32.084Z,5.33
2023-02-25T01:45:58.372Z,4.43
2023-02-25T01:48:29.084Z,5.67
2023-02-25T01:50:56.488Z,7.77
2023-02-25T01:53:25.057Z,5.43
2023-02-25T01:55:51.497Z,3.37
2023-02-25T01:58:18.026Z,3.50
2023-02-25T02:00:44.523Z,4.20
2023-02-25T02:03:16.001Z,4.50
2023-02-25T02:05:48.372Z,4.97
2023-02-25T02:08:14.671Z,5.83
2023-02-25T02:10:41.052Z,5.63
2023-02-25T02:13:07.488Z,9.33
2023-02-25T02:15:37.544Z,6.23
2023-02-25T02:18:05.117Z,5.67
2023-02-25T02:20:57.522Z,5.33
2023-02-25T02:23:23.794Z,6.50
2023-02-25T02:25:52.635Z,8.07
2023-02-25T02:28:24.953Z,6.53
2023-02-25T02:30:51.289Z,3.80
2023-02-25T02:33:36.525Z,3.53
2023-02-25T02:36:08.436Z,5.70
2023-02-25T02:38:41.133Z,4.70
2023-02-25T02:41:13.242Z,5.63
2023-02-25T02:43:50.420Z,7.43
2023-02-25T02:46:22.560Z,3.47
2023-02-25T02:49:07.492Z,5.17
2023-02-25T02:51:39.690Z,5.72
2023-02-25T02:54:07.537Z,14.43
2023-02-25T02:56:35.683Z,4.53
2023-02-25T02:59:07.530Z,5.23
2023-02-25T03:01:56.959Z,5.33
2023-02-25T03:04:25.159Z,6.97
2023-02-25T03:06:55.106Z,8.30
2023-02-25T03:09:24.671Z,5.63
2023-02-25T03:11:51.294Z,3.93
2023-02-25T03:14:18.365Z,4.03
2023-02-25T03:16:46.638Z,2.93
2023-02-25T03:19:15.339Z,11.20
2023-02-25T03:22:01.919Z,6.10
2023-02-25T03:24:32.490Z,5.33
2023-02-25T03:26:58.808Z,5.63
2023-02-25T03:29:25.345Z,4.27
2023-02-25T03:32:04.793Z,10.60
2023-02-25T03:34:39.339Z,6.13
2023-02-25T03:37:08.209Z,8.50
2023-02-25T03:39:37.700Z,12.57
2023-02-25T03:42:05.738Z,6.03
2023-02-25T03:44:34.812Z,7.50
2023-02-25T03:47:01.904Z,5.27
2023-02-25T03:49:35.007Z,13.20
2023-02-25T03:52:03.556Z,6.70
2023-02-25T03:54:29.886Z,4.47
2023-02-25T03:56:56.937Z,5.43
2023-02-25T03:59:28.282Z,4.07
2023-02-25T04:01:55.984Z,4.27
2023-02-25T04:04:22.436Z,3.90
2023-02-25T04:06:49.630Z,2.80
2023-02-25T04:09:15.990Z,9.03
2023-02-25T04:11:42.285Z,4.60
2023-02-25T04:14:08.585Z,3.53
2023-02-25T04:16:34.990Z,2.73
2023-02-25T04:19:01.332Z,3.27
2023-02-25T04:21:35.434Z,4.17
2023-02-25T04:24:02.183Z,2.07
2023-02-25T04:26:28.503Z,3.73
2023-02-25T04:28:54.915Z,2.47
2023-02-25T04:31:21.760Z,2.23
2023-02-25T04:33:49.422Z,4.70
2023-02-25T04:36:29.664Z,5.83
2023-02-25T04:38:56.540Z,7.40
2023-02-25T04:41:23.361Z,2.23
2023-02-25T04:43:49.870Z,2.07
2023-02-25T04:46:16.285Z,7.20
2023-02-25T04:48:42.680Z,4.70
2023-02-25T04:51:08.996Z,5.00
2023-02-25T04:53:35.432Z,2.93
2023-02-25T04:56:03.005Z,2.57
2023-02-25T04:58:29.358Z,3.93
2023-02-25T05:00:57.701Z,2.80
2023-02-25T05:03:25.640Z,3.30
2023-02-25T05:05:52.181Z,3.10
2023-02-25T05:08:18.497Z,7.03
2023-02-25T05:10:44.834Z,2.17
2023-02-25T05:13:11.176Z,3.10
2023-02-25T05:15:37.468Z,3.50
2023-02-25T05:18:03.903Z,2.80
2023-02-25T05:20:30.292Z,3.53
2023-02-25T05:22:56.791Z,4.73
2023-02-25T05:25:23.128Z,11.17
2023-02-25T05:27:49.451Z,23.40
2023-02-25T05:30:16.025Z,3.17
2023-02-25T05:32:42.523Z,3.77
2023-02-25T05:35:09.279Z,3.10
2023-02-25T05:37:36.206Z,8.67
2023-02-25T05:40:02.682Z,2.90
2023-02-25T05:42:29.018Z,7.20
2023-02-25T05:44:55.335Z,4.53
2023-02-25T05:47:21.671Z,3.67
2023-02-25T05:49:48.055Z,4.40
2023-02-25T05:52:14.432Z,3.53
2023-02-25T05:54:40.858Z,2.07
2023-02-25T05:57:07.187Z,3.80
2023-02-25T05:59:33.513Z,2.10
2023-02-25T06:01:59.971Z,1.87
2023-02-25T06:04:26.461Z,1.87
2023-02-25T06:06:52.780Z,2.00
2023-02-25T06:09:19.844Z,1.90
2023-02-25T06:11:47.361Z,2.20
2023-02-25T06:14:14.556Z,1.77
2023-02-25T06:16:41.583Z,2.30
2023-02-25T06:19:08.008Z,2.77
2023-02-25T06:21:34.650Z,2.10
2023-02-25T06:24:01.531Z,12.97
2023-02-25T06:26:28.307Z,33.00
2023-02-25T06:28:54.602Z,12.43
2023-02-25T06:31:22.506Z,11.83
2023-02-25T06:33:50.893Z,12.87
2023-02-25T06:36:20.560Z,10.73
2023-02-25T06:38:47.002Z,11.50
2023-02-25T06:41:15.532Z,8.37
2023-02-25T06:43:41.981Z,10.87
2023-02-25T06:46:09.401Z,19.37
2023-02-25T06:48:36.494Z,11.23
2023-02-25T06:51:04.744Z,12.03
2023-02-25T06:53:31.070Z,9.07
2023-02-25T06:55:58.749Z,20.30
2023-02-25T06:58:25.052Z,10.67
2023-02-25T07:00:51.360Z,22.37
2023-02-25T07:03:17.712Z,13.13
2023-02-25T07:05:44.237Z,15.93
2023-02-25T07:08:10.534Z,12.13
2023-02-25T07:10:36.918Z,24.07
2023-02-25T07:13:03.236Z,16.30
2023-02-25T07:15:29.593Z,16.87
2023-02-25T07:17:55.961Z,17.53
2023-02-25T07:20:22.341Z,15.80
2023-02-25T07:22:49.011Z,16.33
2023-02-25T07:25:15.429Z,10.90
2023-02-25T07:27:44.546Z,17.37
2023-02-25T07:30:12.775Z,11.40
2023-02-25T07:32:39.643Z,12.87
2023-02-25T07:35:06.389Z,6.70
2023-02-25T07:37:32.729Z,8.50
2023-02-25T07:40:02.060Z,8.20
2023-02-25T07:42:28.420Z,15.40
2023-02-25T07:44:55.157Z,10.60
2023-02-25T07:47:21.936Z,18.40
2023-02-25T07:49:48.263Z,12.73
2023-02-25T07:52:14.605Z,13.27
2023-02-25T07:54:41.040Z,19.07
2023-02-25T07:57:07.443Z,11.97
2023-02-25T07:59:34.111Z,7.60
2023-02-25T08:02:00.501Z,12.73
2023-02-25T08:04:27.443Z,15.87
2023-02-25T08:06:54.206Z,13.60
2023-02-25T08:09:20.533Z,13.37
2023-02-25T08:11:46.874Z,12.83
2023-02-25T08:14:13.291Z,11.97
2023-02-25T08:16:39.676Z,8.53
2023-02-25T08:19:06.385Z,17.53
2023-02-25T08:21:32.820Z,17.23
2023-02-25T08:23:59.344Z,17.20
2023-02-25T08:26:27.434Z,11.77
2023-02-25T08:28:54.344Z,25.57
2023-02-25T08:31:21.308Z,20.90
2023-02-25T08:33:49.582Z,18.70
2023-02-25T08:36:20.748Z,18.50
2023-02-25T08:38:47.115Z,24.80
2023-02-25T08:41:13.461Z,26.97
2023-02-25T08:43:40.912Z,18.73
2023-02-25T08:46:07.838Z,23.13
2023-02-25T08:48:35.018Z,28.77
2023-02-25T08:51:08.320Z,25.33
2023-02-25T08:53:36.181Z,25.20
2023-02-25T08:56:04.106Z,24.53
2023-02-25T08:58:30.657Z,29.63
2023-02-25T09:00:57.138Z,47.63
2023-02-25T09:03:23.501Z,26.03
2023-02-25T09:05:53.913Z,16.30
2023-02-25T09:08:20.330Z,33.27
2023-02-25T09:10:50.679Z,26.63
2023-02-25T09:13:17.399Z,30.63
2023-02-25T09:15:43.779Z,15.57
2023-02-25T09:18:11.720Z,14.37
2023-02-25T09:20:38.036Z,15.07
2023-02-25T09:23:04.407Z,21.33
2023-02-25T09:25:30.746Z,34.73
2023-02-25T09:27:57.044Z,49.27
2023-02-25T09:30:23.397Z,38.07
2023-02-25T09:32:49.933Z,34.37
2023-02-25T09:35:16.481Z,22.33
2023-02-25T09:37:42.775Z,18.37
2023-02-25T09:40:10.547Z,38.13
2023-02-25T09:42:59.945Z,15.53
2023-02-25T09:45:26.687Z,18.53
2023-02-25T09:47:56.070Z,39.60
2023-02-25T09:50:24.927Z,45.30
2023-02-25T09:53:01.692Z,32.63
2023-02-25T09:55:35.493Z,48.50
2023-02-25T09:58:08.878Z,15.83
2023-02-25T10:00:40.353Z,34.57
2023-02-25T10:03:10.635Z,21.90
2023-02-25T10:05:49.554Z,6.43
2023-02-25T10:08:20.931Z,12.23
2023-02-25T10:10:53.368Z,7.27
2023-02-25T10:13:31.636Z,9.23
2023-02-25T10:15:57.980Z,6.83
2023-02-25T10:18:24.265Z,6.67
2023-02-25T10:21:07.671Z,9.93
2023-02-25T10:23:44.182Z,10.47
2023-02-25T10:26:20.861Z,12.07
2023-02-25T10:28:49.143Z,24.13
2023-02-25T10:31:18.474Z,28.00
2023-02-25T10:33:45.887Z,33.63
2023-02-25T10:36:17.064Z,21.93
2023-02-25T10:38:45.334Z,2.90
2023-02-25T10:41:11.672Z,2.97
2023-02-25T10:43:38.281Z,3.67
2023-02-25T10:46:10.450Z,3.80
2023-02-25T10:48:38.171Z,14.90
2023-02-25T10:51:06.416Z,4.13
2023-02-25T10:53:33.346Z,8.37
2023-02-25T10:56:00.591Z,3.93
2023-02-25T10:58:36.739Z,40.20
2023-02-25T11:01:09.247Z,72.17
2023-02-25T11:03:43.947Z,61.33
2023-02-25T11:06:12.796Z,29.45
2023-02-25T11:08:39.640Z,49.87
2023-02-25T11:11:14.202Z,44.27
2023-02-25T11:13:40.718Z,33.95
2023-02-25T11:16:08.528Z,57.40
2023-02-25T11:18:35.349Z,39.93
2023-02-25T11:21:03.069Z,30.07
2023-02-25T11:23:33.570Z,59.40
2023-02-25T11:26:00.142Z,23.70
2023-02-25T11:28:30.379Z,74.97
2023-02-25T11:31:29.509Z,30.73
2023-02-25T11:33:59.137Z,33.57
2023-02-25T11:36:31.204Z,29.93
2023-02-25T11:39:13.650Z,30.67
2023-02-25T11:41:39.978Z,16.63
2023-02-25T11:44:18.879Z,26.43
2023-02-25T11:46:47.883Z,25.17
2023-02-25T11:49:21.136Z,34.90
2023-02-25T11:51:47.408Z,26.27
2023-02-25T11:54:32.026Z,16.77
2023-02-25T11:57:17.087Z,15.60
2023-02-25T11:59:55.370Z,14.93
2023-02-25T12:02:21.735Z,6.40
2023-02-25T12:04:57.519Z,6.07
2023-02-25T12:07:26.932Z,11.00
2023-02-25T12:10:08.626Z,5.60
2023-02-25T12:12:53.607Z,12.07
2023-02-25T12:15:34.431Z,12.88
2023-02-25T12:18:15.820Z,5.20
2023-02-25T12:20:44.892Z,10.63
2023-02-25T12:23:40.540Z,7.57
2023-02-25T12:26:14.536Z,24.25
2023-02-25T12:28:49.758Z,3.97
2023-02-25T12:31:33.975Z,3.10
2023-02-25T12:34:21.064Z,7.77
2023-02-25T12:36:48.646Z,5.30
2023-02-25T12:39:24.090Z,4.97
2023-02-25T12:41:57.140Z,2.97
2023-02-25T12:44:37.100Z,12.47
2023-02-25T12:47:15.692Z,6.57
2023-02-25T12:49:52.123Z,6.97
2023-02-25T12:52:23.172Z,13.17
2023-02-25T12:54:55.659Z,23.17
2023-02-25T12:57:31.202Z,9.97
2023-02-25T13:00:11.830Z,6.30
2023-02-25T13:02:38.209Z,4.43
2023-02-25T13:05:19.894Z,6.83
2023-02-25T13:08:07.009Z,4.30
2023-02-25T13:10:39.184Z,2.17
2023-02-25T13:13:22.180Z,2.53
2023-02-25T13:15:54.701Z,3.67
2023-02-25T13:18:32.897Z,2.57
2023-02-25T13:20:59.205Z,3.67
2023-02-25T13:23:33.537Z,1.97
2023-02-25T13:25:59.924Z,2.00
2023-02-25T13:28:26.211Z,3.10
2023-02-25T13:31:05.675Z,6.33
2023-02-25T13:33:56.606Z,10.30
2023-02-25T13:36:32.820Z,13.93
2023-02-25T13:39:06.976Z,3.37
2023-02-25T13:41:33.349Z,7.43
2023-02-25T13:44:11.719Z,4.30
2023-02-25T13:46:57.067Z,2.77
2023-02-25T13:49:41.997Z,2.83
2023-02-25T13:52:24.702Z,2.00
2023-02-25T13:55:01.057Z,5.63
2023-02-25T13:57:45.614Z,15.67
2023-02-25T14:00:35.193Z,3.03
2023-02-25T14:03:20.239Z,1.90
2023-02-25T14:05:56.785Z,1.88
2023-02-25T14:08:41.732Z,2.20
2023-02-25T14:11:11.190Z,3.28
2023-02-25T14:13:43.505Z,3.17
2023-02-25T14:16:20.674Z,1.87
2023-02-25T14:18:59.585Z,4.17
2023-02-25T14:21:40.884Z,2.03
2023-02-25T14:24:12.219Z,1.90
2023-02-25T14:26:57.463Z,2.83
2023-02-25T14:29:29.874Z,3.58
2023-02-25T14:32:03.202Z,3.90
2023-02-25T14:34:46.370Z,1.50
2023-02-25T14:37:15.495Z,2.00
2023-02-25T14:40:05.235Z,4.10
2023-02-25T14:42:57.392Z,2.37
2023-02-25T14:45:35.703Z,4.03
2023-02-25T14:48:04.630Z,2.90
2023-02-25T14:50:33.959Z,1.50
2023-02-25T14:53:03.150Z,2.23
2023-02-25T14:55:39.906Z,2.17
2023-02-25T14:58:30.391Z,2.70
2023-02-25T15:01:02.534Z,9.70
2023-02-25T15:03:47.478Z,2.30
2023-02-25T15:06:32.465Z,2.97
2023-02-25T15:09:10.340Z,1.63
2023-02-25T15:11:36.630Z,5.90
2023-02-25T15:14:21.816Z,3.00
2023-02-25T15:17:07.154Z,1.58
2023-02-25T15:19:40.251Z,2.45
2023-02-25T15:22:21.186Z,3.07
2023-02-25T15:24:48.249Z,1.63
2023-02-25T15:27:41.909Z,4.10
2023-02-25T15:30:08.479Z,1.50
2023-02-25T15:32:53.462Z,3.77
2023-02-25T15:35:21.551Z,9.93
2023-02-25T15:37:50.653Z,5.43
2023-02-25T15:40:17.037Z,3.33
2023-02-25T15:42:46.691Z,4.87
2023-02-25T15:45:28.516Z,4.00
2023-02-25T15:48:07.304Z,2.20
2023-02-25T15:50:42.669Z,2.80
2023-02-25T15:53:20.797Z,1.93
2023-02-25T15:55:53.882Z,6.53
2023-02-25T15:58:20.198Z,2.10
2023-02-25T16:00:47.241Z,1.70
2023-02-25T16:03:32.018Z,1.80
2023-02-25T16:06:19.054Z,2.45
2023-02-25T16:08:45.325Z,4.10
2023-02-25T16:11:27.037Z,2.30
2023-02-25T16:13:54.217Z,3.40
2023-02-25T16:16:21.693Z,2.67
2023-02-25T16:18:50.508Z,4.90
2023-02-25T16:21:22.874Z,2.87
2023-02-25T16:23:50.032Z,14.57
2023-02-25T16:26:19.439Z,5.80
2023-02-25T16:28:51.686Z,5.10
2023-02-25T16:31:18.521Z,2.60
2023-02-25T16:33:49.110Z,2.10
2023-02-25T16:36:24.829Z,1.70
2023-02-25T16:39:09.961Z,2.20
2023-02-25T16:41:38.927Z,6.57
2023-02-25T16:44:06.456Z,4.57
2023-02-25T16:46:34.472Z,1.83
2023-02-25T16:49:07.681Z,2.53
2023-02-25T16:51:37.072Z,4.43
2023-02-25T16:54:20.768Z,2.47
2023-02-25T16:56:48.164Z,5.90
2023-02-25T16:59:14.443Z,2.63
2023-02-25T17:02:00.910Z,1.73
2023-02-25T17:04:31.701Z,1.80
2023-02-25T17:07:05.474Z,4.40
2023-02-25T17:09:31.754Z,2.17
2023-02-25T17:11:58.444Z,1.93
2023-02-25T17:14:25.040Z,9.50
2023-02-25T17:16:51.470Z,3.47
2023-02-25T17:19:22.825Z,1.60
2023-02-25T17:21:57.269Z,3.57
2023-02-25T17:24:28.678Z,2.78
2023-02-25T17:26:55.167Z,2.93
2023-02-25T17:29:21.657Z,2.30
2023-02-25T17:31:48.500Z,2.87
2023-02-25T17:34:20.853Z,3.17
2023-02-25T17:36:47.648Z,2.57
2023-02-25T17:39:18.145Z,2.80
2023-02-25T17:41:45.019Z,4.60
2023-02-25T17:44:12.770Z,2.57
2023-02-25T17:46:41.412Z,1.47
2023-02-25T17:49:16.608Z,1.30
2023-02-25T17:54:13.742Z,1.30
2023-02-25T17:56:40.110Z,1.60
2023-02-25T17:59:12.447Z,1.40
2023-02-25T18:01:47.658Z,1.43
2023-02-25T18:06:42.854Z,1.30
2023-02-25T18:09:28.053Z,1.90
2023-02-25T18:11:55.192Z,1.67
2023-02-25T18:14:27.945Z,1.60
2023-02-25T18:16:55.534Z,2.23
2023-02-25T18:19:21.971Z,1.43
2023-02-25T18:21:48.343Z,1.60
2023-02-25T18:24:25.234Z,1.97
2023-02-25T18:27:05.845Z,2.20
2023-02-25T18:29:32.833Z,3.00
2023-02-25T18:31:59.404Z,2.07
2023-02-25T18:34:25.769Z,2.80
2023-02-25T18:36:52.184Z,2.30
2023-02-25T18:39:19.235Z,3.97
2023-02-25T18:41:45.564Z,2.10
2023-02-25T18:44:15.481Z,1.90
2023-02-25T18:46:41.859Z,1.60
2023-02-25T18:49:08.243Z,1.80
2023-02-25T18:51:34.597Z,3.13
2023-02-25T18:54:00.913Z,1.93
2023-02-25T18:56:27.442Z,1.47
2023-02-25T18:58:54.729Z,2.13
2023-02-25T19:01:23.829Z,2.40
2023-02-25T19:03:51.208Z,3.70
2023-02-25T19:06:17.830Z,2.10
2023-02-25T19:08:44.194Z,2.23
2023-02-25T19:11:18.829Z,1.80
2023-02-25T19:13:45.396Z,1.40
2023-02-25T19:16:11.759Z,1.77
2023-02-25T19:18:39.414Z,1.60
2023-02-25T19:21:10.337Z,2.83
2023-02-25T19:23:36.668Z,1.73
2023-02-25T19:26:04.839Z,4.70
2023-02-25T19:28:31.288Z,3.63
2023-02-25T19:30:57.578Z,1.33
2023-02-25T19:33:23.894Z,6.70
2023-02-25T19:35:50.216Z,1.83
2023-02-25T19:38:17.899Z,1.37
2023-02-25T19:40:45.102Z,2.53
2023-02-25T19:43:11.736Z,1.73
2023-02-25T19:45:39.460Z,1.60
2023-02-25T19:48:06.461Z,2.50
2023-02-25T19:50:34.823Z,1.37
2023-02-25T19:53:01.873Z,1.77
2023-02-25T19:55:29.878Z,1.80
2023-02-25T19:57:56.299Z,1.90
2023-02-25T20:00:23.532Z,2.40
2023-02-25T20:02:51.222Z,6.00
2023-02-25T20:05:17.640Z,2.07
2023-02-25T20:07:44.312Z,2.00
2023-02-25T20:10:12.887Z,2.23
2023-02-25T20:12:42.780Z,1.73
2023-02-25T20:15:10.479Z,3.63
2023-02-25T20:17:37.633Z,3.57
2023-02-25T20:20:07.047Z,4.43
2023-02-25T20:22:33.346Z,1.57
2023-02-25T20:25:00.474Z,3.17
2023-02-25T20:27:26.782Z,2.27
2023-02-25T20:29:53.381Z,1.73
2023-02-25T20:32:19.948Z,3.37
2023-02-25T20:34:46.393Z,2.40
2023-02-25T20:37:23.208Z,2.13
2023-02-25T20:39:51.169Z,1.33
2023-02-25T20:42:20.110Z,2.27
2023-02-25T20:44:49.262Z,2.23
2023-02-25T20:47:19.172Z,1.50
2023-02-25T20:49:45.579Z,1.67
2023-02-25T20:52:13.584Z,6.37
2023-02-25T20:54:40.097Z,3.53
2023-02-25T20:57:06.465Z,6.73
2023-02-25T20:59:34.905Z,2.70
2023-02-25T21:02:03.199Z,2.03
2023-02-25T21:04:29.581Z,1.90
2023-02-25T21:06:56.147Z,1.60
2023-02-25T21:09:22.453Z,1.60
2023-02-25T21:11:48.810Z,5.23
2023-02-25T21:14:15.330Z,2.30
2023-02-25T21:16:42.207Z,12.30
2023-02-25T21:19:08.721Z,1.70
2023-02-25T21:21:37.258Z,2.50
2023-02-25T21:24:07.848Z,3.03
2023-02-25T21:26:34.608Z,4.07
2023-02-25T21:29:00.925Z,4.20
2023-02-25T21:31:27.322Z,2.27
2023-02-25T21:33:53.691Z,3.20
2023-02-25T21:36:20.061Z,4.80
2023-02-25T21:38:46.689Z,4.63
2023-02-25T21:41:14.015Z,2.27
2023-02-25T21:43:40.777Z,2.33
2023-02-25T21:46:08.161Z,2.40
2023-02-25T21:48:34.491Z,2.40
2023-02-25T21:51:00.899Z,1.73
2023-02-25T21:53:27.662Z,2.93
2023-02-25T21:55:54.900Z,2.33
2023-02-25T21:58:21.485Z,1.97
2023-02-25T22:00:47.789Z,2.10
2023-02-25T22:03:14.512Z,4.00
2023-02-25T22:05:44.623Z,8.77
2023-02-25T22:08:11.129Z,2.23
2023-02-25T22:10:38.224Z,2.20
2023-02-25T22:13:04.508Z,1.87
2023-02-25T22:15:30.808Z,1.87
2023-02-25T22:17:57.151Z,1.70
2023-02-25T22:20:23.451Z,2.27
2023-02-25T22:22:49.787Z,1.53
2023-02-25T22:25:16.254Z,2.10
2023-02-25T22:27:42.813Z,2.50
2023-02-25T22:30:09.377Z,2.73
2023-02-25T22:32:36.798Z,2.73
2023-02-25T22:35:03.604Z,2.13
2023-02-25T22:37:31.673Z,2.00
2023-02-25T22:39:58.024Z,3.07
2023-02-25T22:42:24.767Z,1.70
2023-02-25T22:44:51.098Z,2.23
2023-02-25T22:47:17.531Z,1.93
2023-02-25T22:49:43.837Z,2.00
2023-02-25T22:52:10.148Z,1.90
2023-02-25T22:54:36.463Z,7.90
2023-02-25T22:57:02.801Z,2.43
2023-02-25T22:59:29.295Z,3.30
2023-02-25T23:01:55.727Z,2.10
2023-02-25T23:04:22.065Z,5.10
2023-02-25T23:06:50.548Z,2.07
2023-02-25T23:09:17.350Z,1.47
2023-02-25T23:11:44.211Z,2.33
2023-02-25T23:14:10.927Z,2.47
2023-02-25T23:16:41.656Z,2.17
2023-02-25T23:19:09.580Z,2.63
2023-02-25T23:21:38.512Z,2.50
2023-02-25T23:24:07.432Z,3.43
2023-02-25T23:26:36.612Z,2.03
2023-02-25T23:29:04.080Z,1.77
2023-02-25T23:31:32.321Z,6.17
2023-02-25T23:34:00.625Z,2.47
2023-02-25T23:36:27.590Z,2.57
2023-02-25T23:38:54.929Z,2.17
2023-02-25T23:41:21.532Z,2.60
2023-02-25T23:43:51.312Z,2.60
2023-02-25T23:46:17.902Z,3.53
2023-02-25T23:48:44.301Z,2.27
2023-02-25T23:51:10.611Z,4.30
2023-02-25T23:53:36.930Z,2.47
2023-02-25T23:56:05.090Z,1.40
2023-02-25T23:58:31.394Z,1.50
